Glasston, North Dakota
Current Conditions -  °F | °C
As of 7:55 AM on Thursday 30 Oct 2014 (Local Time) from K2C8 Reporting Station
Overcast Overcast  
Wind Chill: 27°   Ceiling: 1400
Heat Index: 36°   Visibility: 10mi
Dew Point: 32°   Wind: 13mph
Humidity: 87%   Direction: 330°NNW
Pressure: 30.2"   Gusts: 20mph
Location:  48.71°N, 97.45°W
Report Text: K2C8 301255Z AUTO 33011G17KT 10SM OVC014 02/00 A3020 RMK AO2
Loading
Personal Weather Stations






























Interactive Weather Map
Tropical Storm Tracking
New forecast layout! Learn more

10-Day Weather Forecast

Advertisements
Track Severe Weather on mobile